Time;durP1;ratioP1;P1;durP2;ratioP2;P2;SDS_P1;SDS_P2;PMS_P1;PMS_P2;Temp;Humidity;BMP_temperature;BMP_pressure;BME280_temperature;BME280_humidity;BME280_pressure;Samples;Min_cycle;Max_cycle;Signal;HPM_P1;HPM_P2
2023/03/01 00:02:21;;;;;;;25.23;13.45;;;20.30;62.40;;;;;;5026404;28;20029;-78
2023/03/01 00:04:46;;;;;;;27.52;13.20;;;20.20;62.20;;;;;;5026080;28;20443;-76
2023/03/01 00:07:12;;;;;;;21.77;13.15;;;20.20;62.20;;;;;;5025324;28;20030;-76
2023/03/01 00:09:39;;;;;;;19.65;12.45;;;20.20;62.20;;;;;;5025647;28;20036;-76
2023/03/01 00:12:06;;;;;;;21.42;13.32;;;20.20;62.30;;;;;;5026975;28;20040;-76
2023/03/01 00:14:32;;;;;;;19.02;11.77;;;20.20;62.20;;;;;;5027420;28;20040;-76
2023/03/01 00:16:58;;;;;;;23.05;12.10;;;20.20;62.10;;;;;;5023441;28;20060;-75
2023/03/01 00:19:23;;;;;;;22.80;12.98;;;20.20;62.00;;;;;;5022993;28;20067;-75
2023/03/01 00:21:49;;;;;;;20.75;13.00;;;20.20;62.10;;;;;;5008982;28;20040;-75
2023/03/01 00:24:15;;;;;;;20.85;12.07;;;20.20;62.00;;;;;;5025550;28;20025;-75
2023/03/01 00:26:41;;;;;;;20.17;13.18;;;20.20;62.10;;;;;;5026335;28;20123;-75
2023/03/01 00:29:07;;;;;;;23.63;12.70;;;20.20;61.60;;;;;;5007729;28;20100;-75
2023/03/01 00:31:34;;;;;;;24.27;13.45;;;20.20;61.70;;;;;;5023669;28;20477;-75
2023/03/01 00:34:03;;;;;;;24.48;13.18;;;20.20;61.80;;;;;;5024622;28;20025;-74
2023/03/01 00:36:32;;;;;;;22.45;13.43;;;20.20;61.80;;;;;;5008067;28;20038;-76
2023/03/01 00:38:58;;;;;;;22.45;12.85;;;20.20;61.70;;;;;;5009463;28;20025;-75
2023/03/01 00:41:26;;;;;;;24.60;12.80;;;20.20;61.60;;;;;;5024671;28;20148;-75
2023/03/01 00:43:53;;;;;;;19.63;11.93;;;20.20;61.50;;;;;;5024780;28;20033;-76
2023/03/01 00:46:21;;;;;;;23.83;13.55;;;20.20;61.50;;;;;;5008225;28;20506;-75
2023/03/01 00:48:48;;;;;;;22.52;12.77;;;20.20;61.50;;;;;;5024375;28;20056;-76
2023/03/01 00:51:21;;;;;;;22.58;13.32;;;20.20;61.40;;;;;;5026084;28;20425;-74
2023/03/01 00:53:49;;;;;;;25.27;12.93;;;20.30;61.50;;;;;;5026181;28;20548;-75
2023/03/01 00:56:15;;;;;;;23.23;12.82;;;20.20;62.00;;;;;;5008199;28;20030;-75
2023/03/01 00:58:42;;;;;;;24.08;12.35;;;20.20;61.40;;;;;;5023800;28;20037;-75
2023/03/01 01:01:17;;;;;;;19.13;12.82;;;20.20;61.40;;;;;;5024624;28;20041;-74
2023/03/01 01:03:54;;;;;;;20.70;13.05;;;20.20;61.30;;;;;;5025057;28;20038;-75
2023/03/01 01:06:29;;;;;;;22.20;13.10;;;20.30;61.40;;;;;;5026382;28;20034;-76
2023/03/01 01:08:55;;;;;;;23.45;12.50;;;20.20;61.30;;;;;;5023807;28;20048;-75
2023/03/01 01:11:23;;;;;;;20.23;12.05;;;20.20;61.40;;;;;;5026291;28;20051;-74
2023/03/01 01:13:50;;;;;;;20.63;12.05;;;20.20;61.30;;;;;;5025064;28;20395;-74
2023/03/01 01:16:16;;;;;;;23.67;12.00;;;20.20;61.40;;;;;;5011617;28;20049;-74
2023/03/01 01:18:43;;;;;;;20.45;11.75;;;20.20;61.30;;;;;;5030309;28;20032;-74
2023/03/01 01:21:12;;;;;;;21.02;12.00;;;20.20;61.30;;;;;;5027713;28;20052;-74
2023/03/01 01:23:40;;;;;;;22.92;12.88;;;20.20;61.30;;;;;;5028386;28;20033;-73
2023/03/01 01:26:19;;;;;;;19.83;11.48;;;20.20;61.10;;;;;;5011985;28;20037;-75
2023/03/01 01:28:45;;;;;;;22.15;12.90;;;20.20;61.70;;;;;;5025228;28;20037;-74
2023/03/01 01:31:11;;;;;;;22.55;14.70;;;20.10;55.70;;;;;;5027868;28;20648;-75
2023/03/01 01:33:37;;;;;;;45.28;28.15;;;18.90;42.90;;;;;;5010869;28;20059;-75
2023/03/01 01:36:04;;;;;;;42.45;28.13;;;17.90;39.00;;;;;;5028337;28;20052;-76
2023/03/01 01:38:30;;;;;;;46.80;28.35;;;17.30;37.70;;;;;;5011900;28;20033;-74
2023/03/01 01:40:56;;;;;;;49.67;29.08;;;17.00;37.20;;;;;;5032225;28;20025;-75
2023/03/01 01:43:28;;;;;;;39.45;25.67;;;17.50;40.50;;;;;;5031024;28;20033;-74
2023/03/01 01:46:02;;;;;;;34.97;23.40;;;18.00;42.90;;;;;;5030189;28;20040;-74
2023/03/01 01:48:44;;;;;;;39.90;24.20;;;18.40;45.00;;;;;;5030492;28;20091;-75
2023/03/01 01:51:19;;;;;;;34.15;23.13;;;18.70;45.90;;;;;;5011348;28;20038;-74
2023/03/01 01:53:49;;;;;;;34.65;22.00;;;18.90;47.00;;;;;;5029987;28;20040;-74
2023/03/01 01:56:15;;;;;;;;;;;19.10;47.90;;;;;;5032029;28;20060;-75
2023/03/01 01:58:43;;;;;;;32.08;21.30;;;19.20;48.60;;;;;;5047131;28;19909;-75
2023/03/01 02:01:09;;;;;;;32.42;20.98;;;19.30;48.90;;;;;;5014344;28;20067;-75
2023/03/01 02:03:41;;;;;;;33.25;21.38;;;19.40;49.20;;;;;;5013200;28;20057;-75
2023/03/01 02:06:18;;;;;;;31.90;20.90;;;19.50;49.20;;;;;;5029950;28;20116;-75
2023/03/01 02:08:45;;;;;;;32.40;22.05;;;19.60;49.40;;;;;;5031520;28;20029;-75
2023/03/01 02:11:14;;;;;;;35.35;22.77;;;19.60;48.90;;;;;;5010478;28;20057;-75
2023/03/01 02:13:41;;;;;;;33.15;20.25;;;19.60;49.20;;;;;;5021106;28;20243;-75
2023/03/01 02:16:12;;;;;;;30.75;21.10;;;19.70;49.60;;;;;;5029821;28;20132;-75
2023/03/01 02:18:41;;;;;;;32.15;20.42;;;19.70;49.70;;;;;;5033047;28;20029;-75
2023/03/01 02:21:44;;;;;;;33.00;19.98;;;19.80;49.90;;;;;;5030425;28;20037;-75
2023/03/01 02:24:18;;;;;;;34.55;20.42;;;19.80;50.20;;;;;;5025056;28;20026;-75
2023/03/01 02:26:52;;;;;;;31.90;19.70;;;19.80;50.40;;;;;;5029678;28;20037;-75
2023/03/01 02:29:19;;;;;;;30.02;19.25;;;19.80;50.60;;;;;;5030991;28;20033;-76
2023/03/01 02:31:46;;;;;;;38.05;20.33;;;19.80;50.80;;;;;;5031134;28;20056;-75
2023/03/01 02:34:16;;;;;;;28.27;18.23;;;19.80;50.80;;;;;;5030673;28;20025;-74
2023/03/01 02:37:07;;;;;;;27.95;18.25;;;19.90;51.10;;;;;;5030629;28;20381;-75
2023/03/01 02:39:43;;;;;;;31.88;18.70;;;19.90;51.20;;;;;;5029311;28;20112;-75
2023/03/01 02:42:17;;;;;;;27.98;17.25;;;19.90;51.30;;;;;;5029819;28;20108;-75
2023/03/01 02:44:43;;;;;;;30.52;18.50;;;19.90;51.50;;;;;;5028805;28;20044;-74
2023/03/01 02:47:09;;;;;;;24.75;16.52;;;19.90;51.60;;;;;;5029149;28;20095;-74
2023/03/01 02:49:36;;;;;;;29.52;18.35;;;19.90;51.70;;;;;;5029028;28;20068;-75
2023/03/01 02:52:53;;;;;;;27.52;18.30;;;19.90;51.80;;;;;;5029690;28;20026;-74
2023/03/01 02:55:19;;;;;;;27.08;18.35;;;19.90;51.80;;;;;;4982544;28;20038;-75
2023/03/01 02:57:50;;;;;;;26.90;18.30;;;19.90;51.90;;;;;;4996549;28;20049;-75
2023/03/01 03:00:32;;;;;;;26.85;17.00;;;19.90;52.10;;;;;;5035103;28;20025;-74
2023/03/01 03:02:58;;;;;;;24.02;17.27;;;19.90;52.20;;;;;;5034229;28;20033;-75
2023/03/01 03:05:45;;;;;;;27.48;17.42;;;19.90;52.30;;;;;;5028564;28;20037;-74
2023/03/01 03:08:11;;;;;;;23.27;16.42;;;19.90;52.40;;;;;;5030619;28;20131;-76
2023/03/01 03:10:47;;;;;;;24.20;17.13;;;19.90;52.50;;;;;;5029351;28;20503;-76
2023/03/01 03:13:14;;;;;;;24.42;15.70;;;19.90;52.50;;;;;;5028787;28;20380;-75
2023/03/01 03:15:42;;;;;;;23.05;15.77;;;19.90;52.70;;;;;;5029701;28;20033;-76
2023/03/01 03:18:11;;;;;;;23.23;16.08;;;19.90;52.80;;;;;;5028915;28;20080;-73
2023/03/01 03:20:39;;;;;;;24.52;16.30;;;19.90;52.90;;;;;;5030478;28;20558;-74
2023/03/01 03:23:05;;;;;;;22.85;15.75;;;19.90;53.00;;;;;;5029803;28;20029;-74
2023/03/01 03:25:32;;;;;;;24.58;16.25;;;19.90;53.10;;;;;;5029954;28;20029;-76
2023/03/01 03:28:01;;;;;;;24.73;16.23;;;19.90;53.10;;;;;;5027969;28;20483;-74
2023/03/01 03:30:30;;;;;;;23.10;15.85;;;19.90;53.20;;;;;;5029946;28;20104;-74
2023/03/01 03:32:58;;;;;;;25.35;15.57;;;19.90;53.30;;;;;;5028529;28;20076;-75
2023/03/01 03:35:32;;;;;;;24.10;16.00;;;19.90;53.40;;;;;;5028608;28;20029;-74
2023/03/01 03:38:03;;;;;;;22.73;14.43;;;19.90;53.50;;;;;;5028947;28;20036;-75
2023/03/01 03:40:41;;;;;;;23.95;16.00;;;19.90;53.60;;;;;;5029768;28;20086;-75
2023/03/01 03:43:28;;;;;;;21.70;15.02;;;19.90;53.60;;;;;;5029611;28;20041;-75
2023/03/01 03:45:54;;;;;;;24.35;15.15;;;19.90;53.40;;;;;;5015682;28;20030;-76
2023/03/01 03:48:20;;;;;;;26.08;16.08;;;19.90;53.50;;;;;;5027701;28;20545;-75
2023/03/01 03:50:51;;;;;;;23.05;15.05;;;19.90;53.70;;;;;;5028334;28;20083;-75
2023/03/01 03:53:18;;;;;;;22.70;15.40;;;19.90;53.70;;;;;;5027756;28;20041;-75
2023/03/01 03:55:44;;;;;;;25.77;15.20;;;19.90;53.70;;;;;;5029380;28;20057;-75
2023/03/01 03:58:10;;;;;;;23.05;14.77;;;19.90;53.80;;;;;;5028820;28;20022;-75
2023/03/01 04:00:39;;;;;;;20.85;13.75;;;19.90;53.70;;;;;;5029503;28;20044;-75
2023/03/01 04:03:05;;;;;;;23.90;14.55;;;19.90;53.70;;;;;;5008115;28;20480;-75
2023/03/01 04:05:31;;;;;;;22.75;14.07;;;19.90;53.80;;;;;;5027495;28;20096;-75
2023/03/01 04:08:01;;;;;;;20.08;14.10;;;19.90;54.50;;;;;;5029411;28;20033;-76
2023/03/01 04:10:32;;;;;;;19.05;14.07;;;19.90;54.10;;;;;;5027878;28;20045;-75
2023/03/01 04:12:58;;;;;;;23.73;14.70;;;19.90;54.10;;;;;;5008446;28;20373;-76
2023/03/01 04:15:26;;;;;;;21.42;14.10;;;20.00;54.20;;;;;;5024388;28;20078;-75
2023/03/01 04:17:53;;;;;;;23.88;14.65;;;19.90;54.20;;;;;;5027803;28;20096;-75
2023/03/01 04:20:25;;;;;;;24.98;14.70;;;19.90;54.20;;;;;;5028327;28;20026;-75
2023/03/01 04:23:10;;;;;;;22.88;14.27;;;19.90;54.20;;;;;;5028029;28;20072;-75
2023/03/01 04:25:53;;;;;;;20.00;13.57;;;19.90;54.30;;;;;;5028767;28;20080;-75
2023/03/01 04:28:26;;;;;;;22.23;13.65;;;19.90;54.10;;;;;;5028785;28;20025;-75
2023/03/01 04:30:54;;;;;;;20.33;13.40;;;20.00;54.40;;;;;;5028367;28;20029;-75
2023/03/01 04:33:20;;;;;;;23.80;13.23;;;19.90;54.30;;;;;;5028715;28;20030;-75
2023/03/01 04:35:49;;;;;;;19.92;13.50;;;20.00;54.50;;;;;;5028283;28;20060;-75
2023/03/01 04:38:18;;;;;;;18.85;12.38;;;19.90;54.50;;;;;;5029420;28;20013;-75
2023/03/01 04:40:45;;;;;;;;;;;19.90;54.70;;;;;;5027467;28;20025;-76
2023/03/01 04:43:14;;;;;;;20.35;14.07;;;20.00;54.60;;;;;;5028525;28;19955;-75
2023/03/01 04:45:40;;;;;;;20.73;13.20;;;20.00;54.70;;;;;;5028157;28;20034;-75
2023/03/01 04:48:06;;;;;;;21.58;14.02;;;19.90;54.80;;;;;;5028595;28;20036;-75
2023/03/01 04:50:32;;;;;;;20.70;13.38;;;20.00;54.80;;;;;;5026804;28;20098;-75
2023/03/01 04:52:58;;;;;;;20.27;12.93;;;19.90;54.90;;;;;;5029144;28;20034;-75
2023/03/01 04:55:26;;;;;;;20.27;12.20;;;20.00;55.00;;;;;;5028352;28;20029;-75
2023/03/01 04:57:52;;;;;;;19.15;12.63;;;20.00;54.90;;;;;;5010576;28;20514;-75
2023/03/01 05:00:21;;;;;;;18.98;12.93;;;20.00;55.40;;;;;;5027460;28;20022;-75
2023/03/01 05:02:59;;;;;;;19.27;11.77;;;20.00;55.10;;;;;;5027887;28;20037;-75
2023/03/01 05:05:33;;;;;;;21.27;13.90;;;20.00;55.10;;;;;;5028047;28;20418;-74
2023/03/01 05:08:02;;;;;;;19.85;13.18;;;20.00;55.10;;;;;;5019039;28;20172;-75
2023/03/01 05:10:29;;;;;;;22.92;13.25;;;20.00;55.10;;;;;;5018674;28;20029;-75
2023/03/01 05:12:57;;;;;;;20.50;12.88;;;20.00;55.30;;;;;;5009447;28;20064;-75
2023/03/01 05:15:25;;;;;;;18.45;12.75;;;20.00;55.20;;;;;;5026419;28;20026;-75
2023/03/01 05:17:52;;;;;;;18.67;13.25;;;20.00;55.10;;;;;;5027905;28;20033;-75
2023/03/01 05:20:22;;;;;;;19.10;12.05;;;20.00;55.20;;;;;;5027978;28;20021;-74
2023/03/01 05:22:49;;;;;;;20.77;13.60;;;20.00;55.20;;;;;;5027365;28;20032;-75
2023/03/01 05:25:16;;;;;;;19.30;12.48;;;20.00;55.90;;;;;;5028437;28;20033;-75
2023/03/01 05:27:42;;;;;;;20.80;12.30;;;20.00;55.40;;;;;;5026603;28;20112;-75
2023/03/01 05:30:15;;;;;;;19.08;12.25;;;20.00;55.40;;;;;;5028155;28;20510;-75
2023/03/01 05:32:43;;;;;;;19.73;11.93;;;20.00;55.40;;;;;;5027436;28;20115;-75
2023/03/01 05:35:13;;;;;;;17.52;12.00;;;20.00;55.40;;;;;;5027907;28;20488;-75
2023/03/01 05:37:46;;;;;;;20.50;12.63;;;20.00;55.40;;;;;;5027865;28;20026;-74
2023/03/01 05:40:18;;;;;;;19.15;12.13;;;20.00;55.40;;;;;;5028145;28;20018;-75
2023/03/01 05:42:46;;;;;;;18.05;12.23;;;20.00;55.50;;;;;;5027493;28;20029;-75
2023/03/01 05:45:13;;;;;;;17.83;12.20;;;20.00;55.50;;;;;;5026868;28;20033;-75
2023/03/01 05:47:43;;;;;;;18.75;12.40;;;20.00;55.50;;;;;;5027194;28;20415;-75
2023/03/01 05:50:18;;;;;;;18.48;11.90;;;20.00;55.50;;;;;;5026769;28;20132;-75
2023/03/01 05:52:50;;;;;;;18.80;12.48;;;20.00;55.50;;;;;;5028230;28;20037;-75
2023/03/01 05:55:19;;;;;;;18.38;11.70;;;20.00;55.60;;;;;;5027436;28;20109;-74
2023/03/01 05:57:45;;;;;;;19.50;12.10;;;20.00;55.50;;;;;;5026461;28;20030;-75
2023/03/01 06:00:12;;;;;;;20.05;12.35;;;20.00;55.40;;;;;;5030609;28;20021;-75
2023/03/01 06:02:38;;;;;;;18.17;12.02;;;20.00;55.50;;;;;;5031452;28;20029;-75
2023/03/01 06:05:06;;;;;;;17.65;11.27;;;20.00;55.60;;;;;;5030807;28;20030;-75
2023/03/01 06:07:32;;;;;;;17.40;11.48;;;20.00;55.60;;;;;;5031451;28;20459;-75
2023/03/01 06:09:58;;;;;;;20.08;11.77;;;20.00;55.60;;;;;;5030374;28;20107;-75
2023/03/01 06:12:23;;;;;;;17.92;11.13;;;20.00;55.50;;;;;;5029679;28;20120;-75
2023/03/01 06:14:49;;;;;;;30.52;12.18;;;20.00;55.60;;;;;;5030487;28;20032;-75
2023/03/01 06:17:15;;;;;;;17.33;11.27;;;20.00;55.50;;;;;;5030992;28;20080;-75
2023/03/01 06:19:41;;;;;;;18.02;10.98;;;20.00;55.60;;;;;;5031269;28;20475;-75
2023/03/01 06:22:08;;;;;;;17.88;11.85;;;20.00;55.70;;;;;;5029686;28;20564;-75
2023/03/01 06:24:34;;;;;;;16.90;11.32;;;20.00;55.80;;;;;;5030757;28;20152;-75
2023/03/01 06:27:00;;;;;;;16.27;11.10;;;20.00;55.80;;;;;;5029084;28;20482;-74
2023/03/01 06:29:25;;;;;;;15.68;10.60;;;20.00;55.80;;;;;;5030974;28;20018;-75
2023/03/01 06:31:51;;;;;;;17.00;11.23;;;20.00;55.90;;;;;;5031218;28;20025;-75
2023/03/01 06:34:17;;;;;;;17.38;11.75;;;20.00;55.90;;;;;;5030512;28;20064;-75
2023/03/01 06:36:42;;;;;;;18.35;11.07;;;20.00;56.00;;;;;;5029703;28;20075;-75
2023/03/01 06:39:08;;;;;;;18.13;11.55;;;20.00;56.00;;;;;;5030805;28;20449;-74
2023/03/01 06:41:34;;;;;;;17.88;11.57;;;20.00;56.00;;;;;;5029662;28;20557;-75
2023/03/01 06:44:00;;;;;;;19.00;11.27;;;20.00;56.10;;;;;;5009690;28;20105;-75
2023/03/01 06:46:26;;;;;;;17.30;11.07;;;20.00;56.20;;;;;;5027123;28;20033;-75
2023/03/01 06:48:51;;;;;;;19.77;11.23;;;20.00;56.20;;;;;;5029465;28;20068;-75
2023/03/01 06:51:17;;;;;;;17.13;11.07;;;20.00;56.20;;;;;;5010088;28;20029;-75
2023/03/01 06:53:43;;;;;;;16.73;10.70;;;20.00;56.30;;;;;;5023214;28;20029;-75
2023/03/01 06:56:09;;;;;;;18.33;11.50;;;20.00;56.30;;;;;;5028638;28;20057;-75
2023/03/01 06:58:34;;;;;;;17.02;10.70;;;20.00;56.30;;;;;;5028664;28;20418;-75
2023/03/01 07:01:04;;;;;;;19.23;11.05;;;20.00;56.40;;;;;;5030550;28;20048;-75
2023/03/01 07:03:30;;;;;;;;;;;20.00;56.50;;;;;;5029709;28;20037;-75
2023/03/01 07:05:56;;;;;;;15.98;10.32;;;20.00;56.50;;;;;;5030101;28;20438;-76
2023/03/01 07:08:22;;;;;;;16.00;10.45;;;20.00;56.50;;;;;;5029552;28;20517;-76
2023/03/01 07:10:47;;;;;;;16.50;11.00;;;20.00;56.40;;;;;;5028767;28;20061;-76
2023/03/01 07:13:13;;;;;;;16.77;10.25;;;20.00;56.50;;;;;;5023605;28;20033;-76
2023/03/01 07:15:40;;;;;;;17.75;11.43;;;20.00;56.40;;;;;;5028110;28;20504;-77
2023/03/01 07:18:06;;;;;;;16.75;11.05;;;20.00;56.40;;;;;;5029334;28;20013;-75
2023/03/01 07:20:32;;;;;;;17.85;10.75;;;20.00;56.40;;;;;;5029296;28;20557;-75
2023/03/01 07:22:58;;;;;;;17.20;10.55;;;20.10;56.40;;;;;;5028778;28;20065;-75
2023/03/01 07:25:24;;;;;;;19.13;11.52;;;20.10;56.50;;;;;;5029992;28;20029;-75
2023/03/01 07:27:53;;;;;;;15.43;10.25;;;20.10;56.40;;;;;;5028824;28;20033;-76
2023/03/01 07:30:20;;;;;;;15.98;10.20;;;20.10;56.60;;;;;;5028557;28;20025;-76
2023/03/01 07:32:46;;;;;;;15.27;10.40;;;20.10;56.60;;;;;;5029969;28;20037;-76
2023/03/01 07:35:12;;;;;;;18.60;10.18;;;20.10;56.70;;;;;;5029705;28;20040;-76
2023/03/01 07:37:38;;;;;;;16.27;10.23;;;20.10;56.70;;;;;;5029885;28;20096;-76
2023/03/01 07:40:04;;;;;;;18.52;10.20;;;20.10;56.80;;;;;;5029065;28;20108;-76
2023/03/01 07:42:30;;;;;;;14.73;9.32;;;20.10;56.80;;;;;;5012081;28;20028;-76
2023/03/01 07:44:56;;;;;;;19.05;9.85;;;20.10;56.80;;;;;;5029717;28;20034;-76
2023/03/01 07:47:21;;;;;;;16.83;10.32;;;20.10;56.90;;;;;;5029369;28;20071;-74
2023/03/01 07:49:47;;;;;;;16.58;10.63;;;20.10;56.80;;;;;;5027776;28;20394;-73
2023/03/01 07:52:13;;;;;;;17.75;10.55;;;20.10;56.80;;;;;;5029890;28;20104;-75
2023/03/01 07:54:42;;;;;;;16.00;10.75;;;20.10;56.80;;;;;;5028146;28;20029;-74
2023/03/01 07:57:08;;;;;;;18.20;10.13;;;20.10;56.80;;;;;;5027822;28;20032;-74
2023/03/01 07:59:33;;;;;;;18.00;10.55;;;20.10;56.80;;;;;;5011358;28;20037;-74
2023/03/01 08:01:59;;;;;;;16.88;9.98;;;20.10;56.80;;;;;;5029018;28;20037;-75
2023/03/01 08:04:26;;;;;;;15.48;10.40;;;20.10;56.80;;;;;;5048139;23;20399;-73
2023/03/01 08:06:53;;;;;;;19.77;9.90;;;20.20;57.10;;;;;;5029509;28;20029;-74
2023/03/01 08:09:19;;;;;;;18.35;10.23;;;20.20;57.20;;;;;;5023266;28;20401;-74
2023/03/01 08:11:44;;;;;;;18.33;9.85;;;20.20;57.20;;;;;;5038912;28;20032;-73
2023/03/01 08:14:10;;;;;;;14.90;9.57;;;20.20;57.30;;;;;;5030872;28;20071;-74
2023/03/01 08:16:36;;;;;;;18.23;9.93;;;20.20;57.40;;;;;;5033201;28;20044;-74
2023/03/01 08:19:11;;;;;;;17.88;9.93;;;20.20;57.50;;;;;;5041097;28;20056;-74
2023/03/01 08:21:37;;;;;;;21.75;10.02;;;20.20;57.60;;;;;;5036401;28;20110;-74
2023/03/01 08:24:07;;;;;;;17.38;10.18;;;20.30;57.80;;;;;;5029100;28;20026;-74
2023/03/01 08:26:33;;;;;;;16.73;9.68;;;20.30;57.80;;;;;;5032240;28;20040;-74
2023/03/01 08:29:00;;;;;;;18.20;10.18;;;20.30;57.90;;;;;;5040630;28;20033;-74
2023/03/01 08:31:35;;;;;;;22.50;10.20;;;20.30;57.80;;;;;;5028616;28;20041;-74
2023/03/01 08:34:03;;;;;;;18.00;9.70;;;20.30;57.80;;;;;;5027888;28;20044;-74
2023/03/01 08:36:31;;;;;;;15.43;9.82;;;20.40;57.80;;;;;;5029500;28;20143;-74
2023/03/01 08:38:57;;;;;;;19.00;9.33;;;20.40;57.80;;;;;;5042608;28;20033;-74
2023/03/01 08:41:23;;;;;;;19.00;9.50;;;20.40;57.70;;;;;;5028424;28;20029;-74
2023/03/01 08:43:50;;;;;;;17.75;10.10;;;20.50;57.80;;;;;;5028539;28;20026;-74
2023/03/01 08:46:16;;;;;;;16.80;9.85;;;20.40;57.80;;;;;;5028467;28;20036;-74
2023/03/01 08:48:42;;;;;;;14.85;9.88;;;20.40;57.80;;;;;;5044814;28;20029;-74
2023/03/01 08:51:11;;;;;;;15.88;9.20;;;20.40;57.80;;;;;;5028963;28;20032;-75
2023/03/01 08:53:37;;;;;;;15.23;9.63;;;20.40;57.70;;;;;;5028530;28;20029;-75
2023/03/01 08:56:03;;;;;;;24.23;9.98;;;20.50;57.80;;;;;;5026965;28;20037;-75
2023/03/01 08:58:29;;;;;;;26.05;9.55;;;20.50;58.00;;;;;;5044710;28;20051;-74
2023/03/01 09:00:56;;;;;;;22.45;10.10;;;20.50;57.90;;;;;;5029027;28;20021;-74
2023/03/01 09:03:23;;;;;;;23.25;9.70;;;20.50;57.80;;;;;;5028277;28;20029;-75
2023/03/01 09:05:50;;;;;;;16.23;9.70;;;20.60;57.70;;;;;;5028221;28;20116;-75
2023/03/01 09:08:16;;;;;;;23.67;10.07;;;20.60;57.50;;;;;;5044309;28;20036;-75
2023/03/01 09:10:42;;;;;;;17.92;9.20;;;20.60;57.70;;;;;;5029211;28;20041;-75
2023/03/01 09:13:08;;;;;;;19.60;9.48;;;20.60;57.70;;;;;;5028156;28;20316;-75
2023/03/01 09:15:36;;;;;;;16.85;8.95;;;20.60;57.70;;;;;;5000218;28;20084;-75
2023/03/01 09:18:02;;;;;;;19.85;9.63;;;20.60;57.60;;;;;;5042048;28;20052;-75
2023/03/01 09:20:30;;;;;;;16.73;9.60;;;20.60;57.60;;;;;;5048009;28;20083;-76
2023/03/01 09:22:56;;;;;;;22.98;9.85;;;20.60;58.00;;;;;;5028454;28;20479;-74
2023/03/01 09:25:23;;;;;;;16.65;9.02;;;20.70;58.50;;;;;;5028182;28;20108;-75
2023/03/01 09:27:51;;;;;;;18.98;9.80;;;20.70;58.70;;;;;;5038986;28;20037;-75
2023/03/01 09:30:17;;;;;;;24.53;11.00;;;20.80;59.00;;;;;;5032561;28;20515;-75
2023/03/01 09:32:44;;;;;;;24.30;10.88;;;20.90;61.80;;;;;;5045282;28;20059;-76
2023/03/01 09:35:12;;;;;;;20.65;10.13;;;20.90;63.40;;;;;;5060953;28;20458;-75
2023/03/01 09:37:38;;;;;;;24.48;10.00;;;21.00;62.20;;;;;;5022635;28;20578;-75
2023/03/01 09:40:06;;;;;;;23.77;10.20;;;21.00;61.00;;;;;;5038792;28;20064;-76
2023/03/01 09:42:45;;;;;;;22.58;9.93;;;21.10;61.20;;;;;;5032522;28;20041;-75
2023/03/01 09:45:20;;;;;;;19.25;9.57;;;21.10;60.50;;;;;;5031854;28;20083;-75
2023/03/01 09:47:48;;;;;;;28.40;10.07;;;21.00;59.60;;;;;;5039720;28;20132;-77
2023/03/01 09:50:16;;;;;;;19.33;9.75;;;21.00;59.60;;;;;;5038652;28;20037;-75
2023/03/01 09:52:45;;;;;;;21.63;9.05;;;21.00;59.70;;;;;;5031953;28;20041;-76
2023/03/01 09:55:17;;;;;;;21.73;9.70;;;20.90;59.80;;;;;;5031582;28;20040;-76
2023/03/01 09:58:13;;;;;;;19.33;9.93;;;20.90;59.50;;;;;;5038899;28;20037;-76
2023/03/01 10:00:47;;;;;;;21.10;10.25;;;20.80;59.40;;;;;;5035559;28;20026;-75
2023/03/01 10:03:27;;;;;;;20.77;9.35;;;20.80;59.40;;;;;;5042790;28;20528;-75
2023/03/01 10:05:56;;;;;;;;;;;20.80;59.40;;;;;;5057431;28;20103;-76
2023/03/01 10:08:35;;;;;;;17.25;9.05;;;20.70;59.30;;;;;;5043414;28;19916;-76
2023/03/01 10:11:03;;;;;;;17.00;8.48;;;20.70;59.30;;;;;;5031771;28;20037;-76
2023/03/01 10:13:59;;;;;;;20.30;8.95;;;20.70;59.40;;;;;;5035883;28;20428;-75
2023/03/01 10:16:48;;;;;;;22.23;8.90;;;20.70;59.30;;;;;;5037603;28;20033;-75
2023/03/01 10:19:26;;;;;;;16.88;9.13;;;20.70;59.40;;;;;;5046323;28;20025;-75
2023/03/01 10:21:53;;;;;;;17.85;9.02;;;20.80;59.40;;;;;;5038508;28;20017;-76
2023/03/01 10:24:21;;;;;;;17.33;8.68;;;20.70;59.30;;;;;;5043232;28;20445;-76
2023/03/01 10:27:06;;;;;;;16.30;8.48;;;20.70;59.40;;;;;;5033617;28;20402;-73
2023/03/01 10:29:57;;;;;;;20.25;8.80;;;20.80;59.40;;;;;;5031316;28;20071;-74
2023/03/01 10:32:23;;;;;;;17.35;8.38;;;20.80;59.40;;;;;;5031193;28;20060;-73
2023/03/01 10:34:49;;;;;;;16.70;9.13;;;20.80;59.40;;;;;;5029978;28;20060;-73
2023/03/01 10:37:21;;;;;;;14.27;7.88;;;20.80;59.30;;;;;;5045495;28;20501;-74
2023/03/01 10:40:07;;;;;;;18.33;8.02;;;20.80;59.40;;;;;;5035300;28;20037;-74
2023/03/01 10:42:57;;;;;;;18.33;8.90;;;20.80;59.50;;;;;;5016100;28;20033;-74
2023/03/01 10:45:42;;;;;;;18.27;8.38;;;20.80;59.30;;;;;;5031669;28;20517;-74
2023/03/01 10:48:26;;;;;;;20.27;8.70;;;20.80;59.30;;;;;;5033599;28;20029;-75
2023/03/01 10:50:58;;;;;;;14.40;8.40;;;20.80;59.30;;;;;;5032437;28;20029;-75
2023/03/01 10:53:37;;;;;;;18.85;7.88;;;20.80;59.30;;;;;;5033234;28;20034;-73
2023/03/01 10:56:10;;;;;;;13.75;7.85;;;20.80;59.40;;;;;;5033331;28;20037;-73
2023/03/01 10:58:37;;;;;;;15.60;8.00;;;20.80;59.40;;;;;;5033169;28;20083;-74
2023/03/01 11:01:25;;;;;;;26.52;7.90;;;20.70;59.30;;;;;;5032124;28;20475;-73
2023/03/01 11:04:07;;;;;;;17.58;7.55;;;20.80;59.30;;;;;;5032827;28;20041;-73
2023/03/01 11:06:37;;;;;;;16.48;7.80;;;20.70;60.00;;;;;;5031525;28;20056;-74
2023/03/01 11:09:19;;;;;;;17.02;7.80;;;20.70;59.30;;;;;;5030699;28;20033;-73
2023/03/01 11:11:46;;;;;;;15.23;7.53;;;20.70;59.20;;;;;;5030768;28;20033;-74
2023/03/01 11:14:20;;;;;;;14.75;8.25;;;20.70;59.00;;;;;;5032067;28;20033;-74
2023/03/01 11:16:49;;;;;;;16.20;8.85;;;20.60;58.50;;;;;;5031631;28;20031;-74
2023/03/01 11:19:21;;;;;;;18.13;8.75;;;20.60;58.50;;;;;;5049497;28;20021;-74
2023/03/01 11:22:03;;;;;;;23.20;8.18;;;20.60;58.50;;;;;;5041492;28;20041;-74
2023/03/01 11:24:41;;;;;;;14.88;8.35;;;20.60;58.50;;;;;;5036068;28;20025;-74
2023/03/01 11:27:30;;;;;;;18.00;8.43;;;20.60;58.70;;;;;;5048423;28;20115;-74
2023/03/01 11:30:09;;;;;;;16.35;8.48;;;20.70;59.30;;;;;;5049788;28;20029;-73
2023/03/01 11:32:50;;;;;;;18.02;8.63;;;20.70;58.80;;;;;;5044443;28;20064;-74
2023/03/01 11:35:26;;;;;;;15.00;7.80;;;20.70;59.00;;;;;;5037138;28;20064;-73
2023/03/01 11:38:01;;;;;;;14.77;7.95;;;20.70;59.00;;;;;;5046303;28;20021;-74
2023/03/01 11:40:45;;;;;;;17.60;8.00;;;20.70;59.00;;;;;;5049256;28;20021;-74
2023/03/01 11:43:29;;;;;;;13.50;7.80;;;20.70;59.10;;;;;;5048587;28;20422;-74
2023/03/01 11:46:09;;;;;;;18.00;8.60;;;20.70;59.00;;;;;;5049166;28;20033;-74
2023/03/01 11:48:58;;;;;;;;;;;20.70;59.00;;;;;;5049784;28;20033;-74
2023/03/01 11:51:48;;;;;;;13.80;7.32;;;20.70;59.00;;;;;;5031815;28;19992;-74
2023/03/01 11:54:40;;;;;;;12.60;7.28;;;20.70;59.00;;;;;;5061099;28;20033;-75
2023/03/01 11:57:36;;;;;;;14.95;7.93;;;20.70;58.80;;;;;;5032859;28;20068;-74
2023/03/01 12:00:08;;;;;;;15.88;7.68;;;20.70;58.90;;;;;;5031503;28;20079;-74
2023/03/01 12:02:40;;;;;;;17.23;8.45;;;20.70;59.30;;;;;;5030448;28;20487;-74
2023/03/01 12:05:29;;;;;;;17.58;8.10;;;20.80;59.80;;;;;;5024650;28;20045;-74
2023/03/01 12:08:20;;;;;;;19.27;7.85;;;20.80;60.10;;;;;;5031351;28;20028;-73
2023/03/01 12:11:01;;;;;;;14.15;7.80;;;20.80;60.30;;;;;;5030008;28;20480;-75
2023/03/01 12:13:45;;;;;;;14.02;7.30;;;20.80;59.80;;;;;;5031403;28;20030;-75
2023/03/01 12:16:38;;;;;;;13.93;6.97;;;20.80;59.70;;;;;;5046348;28;20082;-74
2023/03/01 12:19:24;;;;;;;13.02;7.32;;;20.80;59.50;;;;;;5031313;28;20025;-74
2023/03/01 12:22:02;;;;;;;15.15;8.07;;;20.80;59.50;;;;;;5046320;28;20434;-74
2023/03/01 12:24:55;;;;;;;11.85;6.78;;;20.80;59.40;;;;;;5030512;28;20039;-74
2023/03/01 12:27:44;;;;;;;14.15;6.65;;;20.80;59.30;;;;;;5030693;28;20387;-74
2023/03/01 12:30:38;;;;;;;11.97;6.97;;;20.70;59.30;;;;;;5045738;28;20044;-74
2023/03/01 12:33:36;;;;;;;16.10;7.25;;;20.70;59.20;;;;;;5029589;28;20496;-75
2023/03/01 12:36:38;;;;;;;12.45;6.63;;;20.70;59.40;;;;;;5062833;28;20037;-74
2023/03/01 12:39:19;;;;;;;15.15;7.18;;;20.70;59.30;;;;;;5044749;28;20537;-74
2023/03/01 12:42:04;;;;;;;14.23;7.07;;;20.70;59.00;;;;;;5031087;28;20116;-75
2023/03/01 12:45:01;;;;;;;15.98;7.00;;;20.70;59.70;;;;;;5031427;28;20564;-74
2023/03/01 12:47:37;;;;;;;14.10;7.00;;;20.70;59.60;;;;;;5044434;28;20471;-74
2023/03/01 12:50:21;;;;;;;13.43;6.78;;;20.70;59.40;;;;;;5030392;28;20033;-75
2023/03/01 12:52:52;;;;;;;12.65;6.70;;;20.70;59.40;;;;;;5030172;28;20472;-74